Barksdale Air Force Base

Airport
ICAO code: 
KBAD
Summary
ICAO Region: 
NAM
Territory: 
Location: 
Bossier City, Louisiana,
Coordinates: 
Aerial View: 
32° 30' 6.694" N, 93° 39' 25.71" W
Metar
Observation
KBAD 040756Z AUTO 21008KT 10SM OVC005 19/19 A3001 RMK AO2 SLP164 T01930193
Station
Barksdale Air Force Base
Date/Time
2021-12-04 07:56:00
Wind direction
210°
Wind speed
08 kts
Lowest cloud amount
overcast
Temperature
19.3°C
Dew point
19.3°C
Humidity
100%
Weather condition
n/a

Description

Barksdale Air Force Base is a United States Air Force installation located 8 km east-southeast of Bossier City, Louisiana.

Climatology

Humid “subtropical” climate (Köppen climate classification Cfa) - characterized by hot, humid summers and cool winters. Significant amounts of precipitation occur in all seasons in most areas. Winter rainfall (and sometimes snowfall) is associated with large storms that the westerlies steer from west to east. Most summer rainfall occurs during thunderstorms and occasional tropical storms (hurricanes).

Runways

Designator Length Width Surface Rops
15/33 3583 91 PEM Yes/Yes
Airport map: 
Aerial View: 

SKYbrary Partners:

Safety knowledge contributed by: